createdAt,value
2023-03-21T00:01:38.980Z,101098.47
2023-03-21T00:04:06.869Z,101106.94
2023-03-21T00:06:34.534Z,101098.56
2023-03-21T00:09:03.853Z,101104.13
2023-03-21T00:11:31.495Z,101101.63
2023-03-21T00:14:02.376Z,101098.75
2023-03-21T00:16:32.391Z,101093.81
2023-03-21T00:19:06.291Z,101088.72
2023-03-21T00:21:55.554Z,101085.59
2023-03-21T00:24:27.237Z,101086.53
2023-03-21T00:27:03.363Z,101091.97
2023-03-21T00:29:38.274Z,101081.53
2023-03-21T00:32:06.108Z,101080.97
2023-03-21T00:34:43.446Z,101079.31
2023-03-21T00:37:21.405Z,101080.50
2023-03-21T00:39:50.424Z,101078.34
2023-03-21T00:42:19.868Z,101088.31
2023-03-21T00:44:47.679Z,101076.09
2023-03-21T00:47:15.570Z,101077.03
2023-03-21T00:49:43.212Z,101078.56
2023-03-21T00:52:27.564Z,101080.69
2023-03-21T00:55:01.496Z,101069.94
2023-03-21T00:57:38.643Z,101074.47
2023-03-21T01:00:10.042Z,101075.41
2023-03-21T01:02:37.942Z,101068.94
2023-03-21T01:05:05.974Z,101071.09
2023-03-21T01:07:33.609Z,101068.94
2023-03-21T01:10:02.598Z,101069.00
2023-03-21T01:12:30.190Z,101071.44
2023-03-21T01:14:57.906Z,101071.56
2023-03-21T01:17:27.082Z,101070.03
2023-03-21T01:19:55.317Z,101064.09
2023-03-21T01:22:22.903Z,101061.16
2023-03-21T01:24:55.472Z,101062.34
2023-03-21T01:27:29.569Z,101062.53
2023-03-21T01:29:57.804Z,101061.47
2023-03-21T01:32:26.278Z,101059.13
2023-03-21T01:34:54.078Z,101061.38
2023-03-21T01:37:26.206Z,101060.56
2023-03-21T01:39:53.856Z,101059.94
2023-03-21T01:42:21.509Z,101062.69
2023-03-21T01:44:55.276Z,101056.75
2023-03-21T01:47:23.207Z,101051.47
2023-03-21T01:50:03.431Z,101060.13
2023-03-21T01:52:50.017Z,101059.00
2023-03-21T01:55:24.974Z,101061.84
2023-03-21T01:58:05.880Z,101067.28
2023-03-21T02:00:49.956Z,101060.75
2023-03-21T02:03:35.762Z,101058.38
2023-03-21T02:06:30.452Z,101054.38
2023-03-21T02:11:33.221Z,101059.59
2023-03-21T02:14:06.632Z,101056.13
2023-03-21T02:16:53.824Z,101057.78
2023-03-21T02:19:37.325Z,101064.53
2023-03-21T02:22:33.643Z,101060.09
2023-03-21T02:25:22.401Z,101058.25
2023-03-21T02:27:51.678Z,101058.72
2023-03-21T02:30:49.480Z,101056.06
2023-03-21T02:33:24.307Z,101051.19
2023-03-21T02:35:58.602Z,101056.78
2023-03-21T02:38:31.675Z,101051.63
2023-03-21T02:41:03.447Z,101054.75
2023-03-21T02:43:32.266Z,101052.13
2023-03-21T02:46:02.756Z,101055.53
2023-03-21T02:48:41.102Z,101047.56
2023-03-21T02:51:17.359Z,101054.19
2023-03-21T02:53:51.739Z,101047.06
2023-03-21T02:56:23.360Z,101051.44
2023-03-21T02:58:55.219Z,101056.25
2023-03-21T03:01:25.944Z,101051.84
2023-03-21T03:03:53.914Z,101052.22
2023-03-21T03:06:22.638Z,101051.50
2023-03-21T03:09:02.897Z,101062.09
2023-03-21T03:11:32.484Z,101051.03
2023-03-21T03:14:38.352Z,101053.75
2023-03-21T03:17:08.358Z,101060.56
2023-03-21T03:19:44.687Z,101052.84
2023-03-21T03:22:18.892Z,101059.13
2023-03-21T03:24:48.231Z,101063.84
2023-03-21T03:27:17.675Z,101056.75
2023-03-21T03:29:46.322Z,101055.53
2023-03-21T03:32:18.007Z,101053.22
2023-03-21T03:34:49.641Z,101057.78
2023-03-21T03:37:21.495Z,101052.50
2023-03-21T03:39:52.251Z,101054.13
2023-03-21T03:42:28.160Z,101050.22
2023-03-21T03:45:05.596Z,101053.44
2023-03-21T03:47:37.980Z,101060.31
2023-03-21T03:50:10.748Z,101063.75
2023-03-21T03:52:50.042Z,101057.44
2023-03-21T03:55:26.588Z,101060.06
2023-03-21T03:57:56.562Z,101056.72
2023-03-21T04:00:25.397Z,101059.50
2023-03-21T04:02:53.105Z,101053.22
2023-03-21T04:05:24.420Z,101063.03
2023-03-21T04:07:52.506Z,101058.25
2023-03-21T04:10:31.290Z,101052.56
2023-03-21T04:12:58.913Z,101050.47
2023-03-21T04:15:46.808Z,101052.19
2023-03-21T04:18:17.072Z,101049.75
2023-03-21T04:20:45.936Z,101048.47
2023-03-21T04:23:14.089Z,101051.75
2023-03-21T04:25:56.247Z,101061.69
2023-03-21T04:28:27.881Z,101055.06
2023-03-21T04:31:11.071Z,101058.38
2023-03-21T04:33:50.427Z,101062.16
2023-03-21T04:36:27.318Z,101056.56
2023-03-21T04:39:00.731Z,101054.91
2023-03-21T04:41:30.346Z,101057.56
2023-03-21T04:43:58.448Z,101053.66
2023-03-21T04:46:26.540Z,101052.09
2023-03-21T04:48:54.208Z,101057.31
2023-03-21T04:51:21.829Z,101051.06
2023-03-21T04:53:52.406Z,101060.25
2023-03-21T04:56:20.384Z,101050.16
2023-03-21T04:58:49.463Z,101050.81
2023-03-21T05:01:20.736Z,101054.19
2023-03-21T05:03:48.997Z,101049.34
2023-03-21T05:06:16.660Z,101052.63
2023-03-21T05:08:44.390Z,101055.84
2023-03-21T05:11:13.156Z,101046.19
2023-03-21T05:13:41.445Z,101061.69
2023-03-21T05:16:10.947Z,101054.53
2023-03-21T05:18:39.263Z,101051.84
2023-03-21T05:21:18.298Z,101046.91
2023-03-21T05:23:54.118Z,101053.16
2023-03-21T05:26:22.217Z,101041.50
2023-03-21T05:29:05.536Z,101053.91
2023-03-21T05:31:34.726Z,101047.72
2023-03-21T05:34:07.899Z,101039.84
2023-03-21T05:36:36.756Z,101046.19
2023-03-21T05:39:08.054Z,101048.34
2023-03-21T05:41:40.084Z,101048.69
2023-03-21T05:44:08.095Z,101057.47
2023-03-21T05:46:38.554Z,101059.53
2023-03-21T05:49:06.976Z,101053.75
2023-03-21T05:51:35.018Z,101051.75
2023-03-21T05:54:02.684Z,101053.00
2023-03-21T05:56:30.570Z,101047.75
2023-03-21T05:59:03.343Z,101054.31
2023-03-21T06:01:34.986Z,101058.22
2023-03-21T06:04:15.691Z,101052.38
2023-03-21T06:06:44.239Z,101052.41
2023-03-21T06:09:11.942Z,101051.28
2023-03-21T06:11:42.364Z,101058.88
2023-03-21T06:14:28.397Z,101061.16
2023-03-21T06:17:18.985Z,101063.81
2023-03-21T06:19:56.488Z,101069.34
2023-03-21T06:22:30.948Z,101058.78
2023-03-21T06:24:59.015Z,101072.22
2023-03-21T06:27:27.741Z,101063.50
2023-03-21T06:29:57.976Z,101071.56
2023-03-21T06:32:25.773Z,101062.91
2023-03-21T06:34:59.585Z,101069.75
2023-03-21T06:37:27.478Z,101073.88
2023-03-21T06:39:55.832Z,101066.94
2023-03-21T06:42:24.404Z,101070.41
2023-03-21T06:44:53.830Z,101071.41
2023-03-21T06:47:21.582Z,101071.09
2023-03-21T06:49:50.522Z,101068.16
2023-03-21T06:52:19.631Z,101071.66
2023-03-21T06:54:47.357Z,101078.66
2023-03-21T06:57:18.004Z,101082.34
2023-03-21T06:59:46.241Z,101077.63
2023-03-21T07:02:22.188Z,101073.22
2023-03-21T07:05:19.275Z,101079.19
2023-03-21T07:07:48.656Z,101077.19
2023-03-21T07:10:16.306Z,101073.69
2023-03-21T07:12:49.410Z,101082.06
2023-03-21T07:15:21.442Z,101077.56
2023-03-21T07:17:52.538Z,101072.56
2023-03-21T07:20:20.911Z,101082.91
2023-03-21T07:22:51.178Z,101086.06
2023-03-21T07:25:20.189Z,101090.06
2023-03-21T07:27:51.058Z,101083.38
2023-03-21T07:30:20.189Z,101078.31
2023-03-21T07:32:47.776Z,101083.00
2023-03-21T07:35:17.294Z,101082.81
2023-03-21T07:37:45.038Z,101086.03
2023-03-21T07:40:17.782Z,101084.56
2023-03-21T07:42:45.648Z,101082.34
2023-03-21T07:45:16.587Z,101084.28
2023-03-21T07:47:46.131Z,101080.66
2023-03-21T07:50:13.910Z,101080.38
2023-03-21T07:52:42.002Z,101084.47
2023-03-21T07:55:10.465Z,101090.66
2023-03-21T07:57:39.498Z,101089.22
2023-03-21T08:00:07.875Z,101088.97
2023-03-21T08:02:40.983Z,101086.94
2023-03-21T08:05:11.683Z,101076.22
2023-03-21T08:07:39.386Z,101076.25
2023-03-21T08:10:07.750Z,101087.22
2023-03-21T08:12:35.377Z,101084.09
2023-03-21T08:15:04.536Z,101079.03
2023-03-21T08:17:32.194Z,101071.38
2023-03-21T08:19:59.854Z,101078.69
2023-03-21T08:22:27.526Z,101074.84
2023-03-21T08:24:55.635Z,101076.63
2023-03-21T08:27:23.476Z,101085.84
2023-03-21T08:29:51.141Z,101082.72
2023-03-21T08:32:20.834Z,101082.03
2023-03-21T08:34:48.438Z,101082.03
2023-03-21T08:37:16.342Z,101082.88
2023-03-21T08:39:44.019Z,101085.47
2023-03-21T08:42:11.695Z,101082.84
2023-03-21T08:44:41.433Z,101081.09
2023-03-21T08:47:09.262Z,101093.03
2023-03-21T08:49:38.366Z,101079.84
2023-03-21T08:52:06.830Z,101079.69
2023-03-21T08:54:34.524Z,101080.81
2023-03-21T08:57:02.181Z,101073.84
2023-03-21T08:59:29.772Z,101078.63
2023-03-21T09:01:57.494Z,101081.81
2023-03-21T09:04:26.025Z,101081.63
2023-03-21T09:06:56.295Z,101091.97
2023-03-21T09:09:23.959Z,101088.41
2023-03-21T09:11:52.581Z,101081.69
2023-03-21T09:14:21.836Z,101079.28
2023-03-21T09:16:52.106Z,101083.06
2023-03-21T09:19:19.777Z,101080.34
2023-03-21T09:21:47.783Z,101087.50
2023-03-21T09:24:18.094Z,101080.38
2023-03-21T09:26:46.441Z,101086.72
2023-03-21T09:29:15.939Z,101087.28
2023-03-21T09:31:44.088Z,101085.13
2023-03-21T09:34:12.576Z,101087.44
2023-03-21T09:36:42.187Z,101074.06
2023-03-21T09:39:09.934Z,101076.97
2023-03-21T09:41:45.210Z,101075.78
2023-03-21T09:44:17.200Z,101081.09
2023-03-21T09:46:45.996Z,101076.22
2023-03-21T09:49:16.989Z,101073.63
2023-03-21T09:51:46.179Z,101065.22
2023-03-21T09:54:15.266Z,101075.91
2023-03-21T09:56:44.727Z,101066.25
2023-03-21T09:59:12.637Z,101072.03
2023-03-21T10:01:45.370Z,101068.19
2023-03-21T10:04:15.257Z,101070.31
2023-03-21T10:06:45.203Z,101057.69
2023-03-21T10:09:15.072Z,101057.75
2023-03-21T10:11:44.838Z,101052.97
2023-03-21T10:14:14.581Z,101064.66
2023-03-21T10:16:42.832Z,101055.13
2023-03-21T10:19:12.025Z,101048.16
2023-03-21T10:21:59.598Z,101051.63
2023-03-21T10:24:28.970Z,101049.31
2023-03-21T10:26:58.063Z,101049.44
2023-03-21T10:29:26.824Z,101054.03
2023-03-21T10:31:54.592Z,101062.63
2023-03-21T10:34:24.762Z,101052.81
2023-03-21T10:36:52.357Z,101039.59
2023-03-21T10:39:22.910Z,101037.94
2023-03-21T10:45:29.215Z,101037.25
2023-03-21T10:47:58.278Z,101025.84
2023-03-21T10:50:28.058Z,101029.47
2023-03-21T10:53:00.399Z,101028.59
2023-03-21T10:55:29.110Z,101029.50
2023-03-21T10:57:58.854Z,101030.47
2023-03-21T11:00:27.289Z,101027.97
2023-03-21T11:02:56.476Z,101015.03
2023-03-21T11:05:25.256Z,101023.47
2023-03-21T11:07:59.824Z,101026.50
2023-03-21T11:10:29.457Z,101019.31
2023-03-21T11:12:57.547Z,101014.50
2023-03-21T11:15:30.149Z,101016.66
2023-03-21T11:17:59.349Z,101019.22
2023-03-21T11:20:27.026Z,101016.50
2023-03-21T11:22:55.799Z,101024.03
2023-03-21T11:25:24.136Z,101018.47
2023-03-21T11:27:52.241Z,101014.22
2023-03-21T11:30:22.060Z,101007.38
2023-03-21T11:32:51.878Z,101010.34
2023-03-21T11:35:22.030Z,100998.53
2023-03-21T11:37:53.182Z,101006.28
2023-03-21T11:40:21.797Z,100997.75
2023-03-21T11:42:51.742Z,100988.69
2023-03-21T11:45:20.333Z,100991.75
2023-03-21T11:47:49.394Z,100991.44
2023-03-21T11:50:22.177Z,100980.00
2023-03-21T11:52:52.465Z,100992.50
2023-03-21T11:55:23.967Z,100982.53
2023-03-21T11:57:54.857Z,100977.44
2023-03-21T12:00:26.123Z,100975.38
2023-03-21T12:03:11.502Z,100970.50
2023-03-21T12:05:41.792Z,100968.66
2023-03-21T12:08:10.355Z,100960.88
2023-03-21T12:10:40.639Z,100962.25
2023-03-21T12:13:14.577Z,100961.22
2023-03-21T12:15:43.686Z,100954.69
2023-03-21T12:18:15.531Z,100964.19
2023-03-21T12:20:44.811Z,100959.91
2023-03-21T12:23:15.996Z,100955.09
2023-03-21T12:25:44.626Z,100954.97
2023-03-21T12:28:21.287Z,100947.22
2023-03-21T12:30:55.920Z,100946.91
2023-03-21T12:33:29.799Z,100944.56
2023-03-21T12:36:08.084Z,100945.28
2023-03-21T12:38:38.034Z,100939.94
2023-03-21T12:41:12.753Z,100935.16
2023-03-21T12:43:43.662Z,100930.56
2023-03-21T12:46:12.541Z,100935.56
2023-03-21T12:48:41.750Z,100925.63
2023-03-21T12:51:11.503Z,100926.34
2023-03-21T12:53:56.798Z,100931.09
2023-03-21T12:56:25.581Z,100922.84
2023-03-21T12:58:53.796Z,100917.41
2023-03-21T13:01:22.048Z,100914.78
2023-03-21T13:03:51.462Z,100906.00
2023-03-21T13:06:20.758Z,100909.22
2023-03-21T13:08:49.210Z,100899.13
2023-03-21T13:11:17.946Z,100900.69
2023-03-21T13:13:46.099Z,100903.41
2023-03-21T13:16:14.072Z,100900.25
2023-03-21T13:18:45.518Z,100889.47
2023-03-21T13:21:14.959Z,100895.63
2023-03-21T13:23:47.670Z,100888.75
2023-03-21T13:26:16.021Z,100881.25
2023-03-21T13:28:43.646Z,100881.66
2023-03-21T13:31:18.856Z,100876.69
2023-03-21T13:33:46.826Z,100880.53
2023-03-21T13:36:15.105Z,100878.94
2023-03-21T13:38:45.766Z,100876.75
2023-03-21T13:41:14.202Z,100877.38
2023-03-21T13:43:43.870Z,100883.75
2023-03-21T13:46:12.099Z,100881.06
2023-03-21T13:48:49.386Z,100877.97
2023-03-21T13:51:39.515Z,100871.81
2023-03-21T13:54:17.633Z,100864.63
2023-03-21T13:56:49.749Z,100868.53
2023-03-21T13:59:18.638Z,100872.69
2023-03-21T14:01:59.179Z,100867.94
2023-03-21T14:04:32.215Z,100857.34
2023-03-21T14:07:11.211Z,100865.25
2023-03-21T14:09:40.570Z,100863.81
2023-03-21T14:12:08.815Z,100865.50
2023-03-21T14:14:38.439Z,100858.13
2023-03-21T14:17:12.431Z,100851.69
2023-03-21T14:19:40.212Z,100853.13
2023-03-21T14:22:10.683Z,100850.66
2023-03-21T14:24:38.453Z,100852.16
2023-03-21T14:27:09.639Z,100844.28
2023-03-21T14:29:38.004Z,100842.53
2023-03-21T14:32:05.917Z,100842.75
2023-03-21T14:34:34.265Z,100834.72
2023-03-21T14:37:01.891Z,100833.63
2023-03-21T14:39:30.038Z,100827.50
2023-03-21T14:41:58.319Z,100819.38
2023-03-21T14:44:28.952Z,100812.91
2023-03-21T14:47:01.299Z,100825.59
2023-03-21T14:49:29.589Z,100821.41
2023-03-21T14:51:58.321Z,100811.25
2023-03-21T14:54:27.222Z,100812.97
2023-03-21T14:56:56.461Z,100811.47
2023-03-21T14:59:25.190Z,100800.34
2023-03-21T15:01:54.551Z,100810.25
2023-03-21T15:04:22.842Z,100808.34
2023-03-21T15:06:51.731Z,100796.78
2023-03-21T15:09:19.583Z,100792.47
2023-03-21T15:11:50.920Z,100785.09
2023-03-21T15:14:18.555Z,100790.78
2023-03-21T15:16:46.222Z,100789.34
2023-03-21T15:19:17.599Z,100787.59
2023-03-21T15:21:45.940Z,100785.06
2023-03-21T15:24:15.864Z,100781.22
2023-03-21T15:26:45.082Z,100781.41
2023-03-21T15:29:13.053Z,100777.28
2023-03-21T15:31:40.985Z,100775.94
2023-03-21T15:34:08.718Z,100781.53
2023-03-21T15:36:38.666Z,100782.13
2023-03-21T15:39:06.866Z,100779.09
2023-03-21T15:41:34.524Z,100783.19
2023-03-21T15:44:03.210Z,100780.06
2023-03-21T15:46:34.735Z,100768.66
2023-03-21T15:49:09.260Z,100772.34
2023-03-21T15:51:38.279Z,100763.44
2023-03-21T15:54:06.849Z,100763.94
2023-03-21T15:56:36.263Z,100758.75
2023-03-21T15:59:05.614Z,100763.84
2023-03-21T16:01:38.788Z,100754.72
2023-03-21T16:04:07.268Z,100752.13
2023-03-21T16:06:35.182Z,100745.44
2023-03-21T16:09:07.904Z,100742.78
2023-03-21T16:11:39.411Z,100749.16
2023-03-21T16:14:09.134Z,100746.69
2023-03-21T16:16:36.753Z,100741.31
2023-03-21T16:19:04.481Z,100739.03
2023-03-21T16:21:34.102Z,100742.09
2023-03-21T16:24:02.166Z,100734.25
2023-03-21T16:26:32.168Z,100747.72
2023-03-21T16:29:00.188Z,100750.16
2023-03-21T16:31:28.513Z,100746.34
2023-03-21T16:33:56.335Z,100754.69
2023-03-21T16:36:24.695Z,100757.31
2023-03-21T16:38:52.673Z,100755.03
2023-03-21T16:41:20.803Z,100761.69
2023-03-21T16:43:50.460Z,100757.25
2023-03-21T16:46:18.637Z,100755.50
2023-03-21T16:48:46.818Z,100761.13
2023-03-21T16:51:14.897Z,100769.69
2023-03-21T16:53:42.515Z,100759.56
2023-03-21T16:56:12.050Z,100758.41
2023-03-21T16:58:39.685Z,100751.66
2023-03-21T17:01:09.812Z,100753.22
2023-03-21T17:03:37.901Z,100742.16
2023-03-21T17:06:06.058Z,100751.28
2023-03-21T17:08:33.626Z,100741.97
2023-03-21T17:11:03.409Z,100739.53
2023-03-21T17:13:31.970Z,100733.47
2023-03-21T17:15:59.598Z,100733.06
2023-03-21T17:18:29.244Z,100726.97
2023-03-21T17:20:56.884Z,100729.97
2023-03-21T17:23:24.595Z,100729.44
2023-03-21T17:25:52.243Z,100733.47
2023-03-21T17:28:19.852Z,100739.69
2023-03-21T17:30:47.546Z,100728.81
2023-03-21T17:33:15.692Z,100725.06
2023-03-21T17:35:44.696Z,100733.59
2023-03-21T17:38:13.266Z,100728.63
2023-03-21T17:40:41.209Z,100728.13
2023-03-21T17:43:10.090Z,100725.16
2023-03-21T17:45:37.708Z,100724.53
2023-03-21T17:48:05.739Z,100721.19
2023-03-21T17:50:36.867Z,100720.09
2023-03-21T17:53:06.193Z,100722.81
2023-03-21T17:55:36.956Z,100721.88
2023-03-21T17:58:05.583Z,100719.34
2023-03-21T18:00:33.187Z,100722.50
2023-03-21T18:03:01.026Z,100715.97
2023-03-21T18:05:28.706Z,100714.59
2023-03-21T18:08:12.687Z,100719.31
2023-03-21T18:10:42.653Z,100725.84
2023-03-21T18:13:10.770Z,100711.84
2023-03-21T18:15:44.196Z,100709.88
2023-03-21T18:18:12.834Z,100719.13
2023-03-21T18:20:51.693Z,100715.38
2023-03-21T18:23:20.857Z,100716.78
2023-03-21T18:25:50.054Z,100716.97
2023-03-21T18:28:20.787Z,100716.13
2023-03-21T18:31:07.662Z,100712.41
2023-03-21T18:33:36.616Z,100711.75
2023-03-21T18:36:07.605Z,100708.38
2023-03-21T18:38:35.791Z,100698.25
2023-03-21T18:41:04.819Z,100707.38
2023-03-21T18:46:20.399Z,100705.09
2023-03-21T18:48:49.217Z,100715.97
2023-03-21T18:51:17.711Z,100709.69
2023-03-21T18:53:45.752Z,100704.69
2023-03-21T18:56:56.142Z,100712.66
2023-03-21T18:59:02.909Z,100716.13
2023-03-21T19:01:30.861Z,100709.16
2023-03-21T19:04:20.441Z,100717.72
2023-03-21T19:06:47.791Z,100722.50
2023-03-21T19:09:16.016Z,100713.97
2023-03-21T19:11:47.179Z,100711.97
2023-03-21T19:14:15.528Z,100715.56
2023-03-21T19:17:23.121Z,100714.31
2023-03-21T19:19:31.085Z,100707.72
2023-03-21T19:21:58.785Z,100709.94
2023-03-21T19:24:28.906Z,100713.97
2023-03-21T19:26:58.180Z,100708.06
2023-03-21T19:29:26.116Z,100713.94
2023-03-21T19:31:53.914Z,100716.41
2023-03-21T19:34:21.710Z,100719.72
2023-03-21T19:36:51.959Z,100715.22
2023-03-21T19:39:22.234Z,100713.91
2023-03-21T19:41:50.346Z,100708.88
2023-03-21T19:44:20.911Z,100721.63
2023-03-21T19:46:48.994Z,100700.06
2023-03-21T19:49:20.174Z,100704.38
2023-03-21T19:51:47.871Z,100704.59
2023-03-21T19:54:17.298Z,100706.28
2023-03-21T19:56:47.527Z,100707.66
2023-03-21T19:59:15.856Z,100708.13
2023-03-21T20:01:44.989Z,100708.59
2023-03-21T20:04:13.133Z,100699.56
2023-03-21T20:06:40.878Z,100706.56
2023-03-21T20:11:57.735Z,100698.72
2023-03-21T20:14:25.852Z,100703.50
2023-03-21T20:16:57.343Z,100708.69
2023-03-21T20:19:25.381Z,100706.97
2023-03-21T20:21:58.810Z,100710.97
2023-03-21T20:24:28.212Z,100712.63
2023-03-21T20:26:57.358Z,100712.91
2023-03-21T20:32:14.338Z,100708.72
2023-03-21T20:34:44.285Z,100712.97
2023-03-21T20:37:12.341Z,100710.19
2023-03-21T20:39:39.982Z,100708.69
2023-03-21T20:42:07.652Z,100708.50
2023-03-21T20:44:52.322Z,100708.16
2023-03-21T20:47:24.898Z,100696.09
2023-03-21T20:49:52.521Z,100705.94
2023-03-21T20:55:09.323Z,100700.94
2023-03-21T20:57:38.758Z,100706.91
2023-03-21T21:00:14.674Z,100710.78
2023-03-21T21:02:44.509Z,100708.03
2023-03-21T21:05:33.080Z,100702.63
2023-03-21T21:08:01.870Z,100693.00
2023-03-21T21:10:29.628Z,100696.34
2023-03-21T21:12:57.281Z,100696.47
2023-03-21T21:15:25.058Z,100681.81
2023-03-21T21:18:06.710Z,100685.06
2023-03-21T21:20:35.453Z,100681.44
2023-03-21T21:23:03.123Z,100681.13
2023-03-21T21:25:32.625Z,100685.28
2023-03-21T21:28:01.554Z,100683.97
2023-03-21T21:30:30.319Z,100678.78
2023-03-21T21:33:00.698Z,100679.13
2023-03-21T21:35:28.462Z,100689.22
2023-03-21T21:37:56.167Z,100701.03
2023-03-21T21:40:24.228Z,100685.50
2023-03-21T21:42:51.862Z,100682.00
2023-03-21T21:45:20.133Z,100682.53
2023-03-21T21:47:51.481Z,100682.53
2023-03-21T21:50:22.480Z,100676.44
2023-03-21T21:52:54.169Z,100674.19
2023-03-21T21:55:22.339Z,100672.53
2023-03-21T21:57:52.795Z,100672.25
2023-03-21T22:00:25.129Z,100677.47
2023-03-21T22:02:53.080Z,100667.50
2023-03-21T22:05:22.272Z,100669.88
2023-03-21T22:07:50.324Z,100672.75
2023-03-21T22:10:18.123Z,100663.63
2023-03-21T22:12:46.080Z,100670.97
2023-03-21T22:15:13.812Z,100661.72
2023-03-21T22:17:41.665Z,100657.63
2023-03-21T22:20:10.059Z,100667.03
2023-03-21T22:22:39.223Z,100662.56
2023-03-21T22:25:10.384Z,100662.94
2023-03-21T22:27:38.141Z,100679.72
2023-03-21T22:30:07.386Z,100674.91
2023-03-21T22:32:35.256Z,100678.78
2023-03-21T22:35:03.389Z,100675.63
2023-03-21T22:37:31.333Z,100670.38
2023-03-21T22:40:00.385Z,100669.16
2023-03-21T22:42:28.047Z,100673.44
2023-03-21T22:44:55.788Z,100665.00
2023-03-21T22:47:23.473Z,100663.94
2023-03-21T22:49:51.613Z,100669.06
2023-03-21T22:52:19.234Z,100665.75
2023-03-21T22:54:47.730Z,100659.03
2023-03-21T22:57:16.989Z,100662.38
2023-03-21T22:59:44.622Z,100663.22
2023-03-21T23:02:12.242Z,100662.31
2023-03-21T23:04:39.980Z,100658.97
2023-03-21T23:07:07.740Z,100659.94
2023-03-21T23:09:35.437Z,100661.72
2023-03-21T23:12:03.029Z,100659.38
2023-03-21T23:14:31.999Z,100656.72
2023-03-21T23:17:02.672Z,100662.66
2023-03-21T23:19:30.714Z,100659.16
2023-03-21T23:21:58.553Z,100657.59
2023-03-21T23:24:26.607Z,100652.47
2023-03-21T23:26:54.217Z,100647.94
2023-03-21T23:29:21.833Z,100649.13
2023-03-21T23:31:50.858Z,100658.91
2023-03-21T23:34:18.519Z,100659.53
2023-03-21T23:36:46.153Z,100646.38
2023-03-21T23:39:14.129Z,100652.06
2023-03-21T23:41:42.711Z,100641.63
2023-03-21T23:44:10.375Z,100632.31
2023-03-21T23:46:38.022Z,100626.66
2023-03-21T23:49:06.994Z,100634.69
2023-03-21T23:51:34.567Z,100630.13
2023-03-21T23:54:02.434Z,100624.19
2023-03-21T23:56:30.221Z,100628.25
2023-03-21T23:58:58.157Z,100631.28
